KSEA/SEA METAR and TAF weather

Enter ICAO airport designator
Station Type Date Time Source
KSEA METAR 2021/09/24 05:53 UTC NOAA

KSEA 240553Z 01010KT 10SM FEW250 15/11 A3024 RMK AO2 SLP244 T01500111 10206 20139 58003


Station Type Date Time Source
KSEA Decoded METAR 2021/09/24 05:53 UTC NOAA

SEATTLE-TACOMA INTERNATIONAL AIRPORT , WA, United States (KSEA) 47-27N 122-19W 136M
Sep 24, 2021 - 01:53 AM EDT / 2021.09.24 0553 UTC
Wind: from the N (010 degrees) at 12 MPH (10 KT):0
Visibility: 10 mile(s):0
Sky conditions: mostly clear
Temperature: 59.0 F (15.0 C)
Dew Point: 52.0 F (11.1 C)
Relative Humidity: 77%
Pressure (altimeter): 30.24 in. Hg (1024 hPa)
Pressure tendency: 0.01 inches (0.3 hPa) lower than three hours ago
ob: KSEA 240553Z 01010KT 10SM FEW250 15/11 A3024 RMK AO2 SLP244 T01500111 10206 20139 58003
cycle: 6

Station Type Date Time Source
KSEA TAF 2021/09/24 06:42 UTC NOAA

TAF KSEA 240539Z 2406/2512 02006KT P6SM SCT250
FM241200 02006KT 6SM BR SCT250
FM241500 02006KT P6SM SCT250
FM242100 34008KT P6SM SCT250
FM251100 20006KT P6SM SCT250

Example: see airport list